Time;durP1;ratioP1;P1;durP2;ratioP2;P2;SDS_P1;SDS_P2;PMS_P1;PMS_P2;Temp;Humidity;BMP_temperature;BMP_pressure;BME280_temperature;BME280_humidity;BME280_pressure;Samples;Min_cycle;Max_cycle;Signal;HPM_P1;HPM_P2
2022/03/29 00:00:42;;;;;;;12.95;6.07;;;18.50;29.30;;;;;;6249953;28;20040;-71
2022/03/29 00:03:43;;;;;;;12.50;5.75;;;18.40;29.40;;;;;;6231692;28;20030;-71
2022/03/29 00:06:44;;;;;;;15.73;6.32;;;18.40;29.60;;;;;;6231940;28;20454;-70
2022/03/29 00:09:45;;;;;;;11.98;6.15;;;18.30;29.80;;;;;;6250109;28;20037;-70
2022/03/29 00:12:45;;;;;;;11.60;6.13;;;18.30;29.90;;;;;;6232215;28;20421;-70
2022/03/29 00:15:46;;;;;;;14.23;6.15;;;18.30;30.00;;;;;;6249875;28;20049;-70
2022/03/29 00:18:47;;;;;;;12.35;6.20;;;18.20;30.20;;;;;;6232129;28;20079;-70
2022/03/29 00:21:48;;;;;;;14.27;6.10;;;18.10;30.30;;;;;;6231928;28;20048;-70
2022/03/29 00:24:49;;;;;;;13.73;5.95;;;18.10;30.50;;;;;;6249719;28;20116;-70
2022/03/29 00:27:50;;;;;;;15.18;6.28;;;18.00;30.50;;;;;;6232267;28;20497;-70
2022/03/29 00:30:51;;;;;;;18.98;6.20;;;18.00;30.30;;;;;;6231663;28;20037;-70
2022/03/29 00:33:52;;;;;;;17.75;5.95;;;18.00;30.40;;;;;;6232019;28;20072;-70
2022/03/29 00:36:53;;;;;;;10.90;5.50;;;18.00;30.30;;;;;;6248737;28;20124;-70
2022/03/29 00:39:54;;;;;;;14.38;7.10;;;18.00;30.50;;;;;;6249331;28;20441;-70
2022/03/29 00:42:55;;;;;;;9.25;5.25;;;18.00;30.50;;;;;;6249201;28;20042;-70
2022/03/29 00:45:56;;;;;;;12.63;5.90;;;18.00;30.60;;;;;;6231814;28;20119;-70
2022/03/29 00:48:57;;;;;;;19.17;5.68;;;18.00;30.80;;;;;;6231552;28;20041;-70
2022/03/29 00:52:02;;;;;;;17.35;5.15;;;18.00;31.00;;;;;;6215063;28;20041;-70
2022/03/29 00:55:05;;;;;;;17.52;5.35;;;17.90;31.10;;;;;;6248306;28;20135;-70
2022/03/29 00:58:07;;;;;;;14.98;4.70;;;17.80;31.90;;;;;;6231548;28;20041;-70
2022/03/29 01:01:10;;;;;;;12.75;5.45;;;17.80;31.50;;;;;;6224699;28;20034;-70
2022/03/29 01:04:11;;;;;;;13.55;5.43;;;17.70;31.60;;;;;;6247555;28;20033;-70
2022/03/29 01:07:12;;;;;;;10.85;5.50;;;17.70;31.70;;;;;;6248311;28;20038;-70
2022/03/29 01:10:13;;;;;;;8.15;4.63;;;17.70;31.70;;;;;;6230612;28;20060;-70
2022/03/29 01:13:15;;;;;;;10.75;4.88;;;17.70;31.60;;;;;;6231089;28;20029;-70
2022/03/29 01:19:40;;;;;;;13.10;5.32;;;17.70;31.80;;;;;;6244975;28;20034;-70
2022/03/29 01:22:43;;;;;;;11.77;5.15;;;17.70;31.90;;;;;;6244531;28;20037;-70
2022/03/29 01:25:45;;;;;;;11.50;5.35;;;17.70;31.80;;;;;;6239630;28;20124;-70
2022/03/29 01:28:46;;;;;;;11.27;5.45;;;17.70;31.70;;;;;;6245730;28;20107;-70
2022/03/29 01:31:49;;;;;;;11.13;5.40;;;17.60;31.70;;;;;;6245313;28;20041;-69
2022/03/29 01:34:51;;;;;;;12.05;5.43;;;17.60;31.80;;;;;;6227134;28;20041;-69
2022/03/29 01:37:54;;;;;;;13.63;5.30;;;17.60;32.10;;;;;;6226469;28;20446;-69
2022/03/29 01:41:05;;;;;;;15.50;5.50;;;17.60;32.30;;;;;;6226592;28;20370;-69
2022/03/29 01:44:07;;;;;;;14.05;5.78;;;17.50;32.50;;;;;;6244308;28;20041;-69
2022/03/29 01:47:08;;;;;;;13.00;5.30;;;17.50;32.70;;;;;;6244638;28;20053;-70
2022/03/29 01:50:12;;;;;;;12.13;5.30;;;17.40;32.70;;;;;;6227338;28;20057;-70
2022/03/29 01:53:24;;;;;;;14.80;5.07;;;17.40;32.90;;;;;;6245006;28;20120;-70
2022/03/29 01:56:29;;;;;;;16.95;5.82;;;17.30;33.10;;;;;;6244124;28;20029;-70
2022/03/29 02:00:30;;;;;;;10.75;5.35;;;17.30;33.30;;;;;;6244827;28;20068;-70
2022/03/29 02:02:51;;;;;;;9.65;5.47;;;17.20;33.50;;;;;;6244325;28;20099;-70
2022/03/29 02:05:53;;;;;;;11.55;4.88;;;17.10;33.70;;;;;;6226509;28;20374;-70
2022/03/29 02:08:57;;;;;;;15.43;5.78;;;17.10;33.70;;;;;;6244695;28;20114;-70
2022/03/29 02:11:57;;;;;;;20.90;5.40;;;17.00;33.70;;;;;;6243978;28;20109;-70
2022/03/29 02:14:59;;;;;;;20.40;6.03;;;17.00;33.90;;;;;;6244654;28;20458;-70
2022/03/29 02:18:00;;;;;;;15.43;5.95;;;16.90;34.20;;;;;;6226927;28;20042;-70
2022/03/29 02:21:01;;;;;;;11.32;6.15;;;16.90;34.40;;;;;;6242483;28;20507;-69
2022/03/29 02:24:02;;;;;;;11.98;5.65;;;16.80;34.50;;;;;;6211407;28;20038;-69
2022/03/29 02:27:03;;;;;;;20.20;5.68;;;16.70;34.60;;;;;;6243633;28;20030;-70
2022/03/29 02:30:05;;;;;;;12.60;5.85;;;16.70;34.80;;;;;;6244275;28;20129;-70
2022/03/29 02:33:07;;;;;;;20.08;6.10;;;16.60;34.90;;;;;;6243902;28;20072;-70
2022/03/29 02:36:09;;;;;;;12.18;5.43;;;16.60;34.90;;;;;;6225901;28;20030;-70
2022/03/29 02:39:10;;;;;;;13.15;5.80;;;16.60;34.80;;;;;;6243241;28;20084;-70
2022/03/29 02:42:11;;;;;;;13.95;5.93;;;16.50;34.80;;;;;;6244002;28;20354;-70
2022/03/29 02:45:17;;;;;;;10.82;5.65;;;16.50;35.10;;;;;;6225975;28;20040;-70
2022/03/29 02:48:18;;;;;;;10.27;5.60;;;16.50;35.30;;;;;;6226289;28;20051;-70
2022/03/29 02:51:19;;;;;;;15.23;5.47;;;16.50;35.30;;;;;;6226806;28;20350;-70
2022/03/29 02:54:20;;;;;;;14.52;5.53;;;16.50;35.20;;;;;;6228949;28;20036;-70
2022/03/29 02:57:21;;;;;;;13.85;5.53;;;16.40;35.10;;;;;;6226574;28;20052;-71
2022/03/29 03:00:22;;;;;;;14.60;5.50;;;16.40;35.30;;;;;;6243091;28;20124;-70
2022/03/29 03:03:22;;;;;;;8.32;4.53;;;16.30;35.40;;;;;;6244340;28;20129;-70
2022/03/29 03:06:24;;;;;;;10.90;5.60;;;16.20;35.60;;;;;;6236268;28;20029;-70
2022/03/29 03:09:25;;;;;;;9.85;5.38;;;16.20;35.70;;;;;;6242219;28;20044;-70
2022/03/29 03:12:26;;;;;;;9.18;5.50;;;16.10;35.80;;;;;;6242838;28;20034;-69
2022/03/29 03:15:27;;;;;;;10.25;5.38;;;16.10;35.80;;;;;;6210316;28;20037;-70
2022/03/29 03:18:28;;;;;;;13.80;5.78;;;16.10;35.80;;;;;;6226069;28;20120;-69
2022/03/29 03:21:29;;;;;;;13.00;5.28;;;16.10;35.90;;;;;;6244179;28;20041;-69
2022/03/29 03:24:30;;;;;;;18.08;5.53;;;16.00;35.90;;;;;;6248587;28;20056;-70
2022/03/29 03:27:31;;;;;;;12.07;5.18;;;16.00;35.90;;;;;;6247382;28;20056;-69
2022/03/29 03:30:33;;;;;;;16.02;5.88;;;16.00;36.00;;;;;;6229432;28;20421;-69
2022/03/29 03:33:34;;;;;;;12.07;5.22;;;15.90;36.00;;;;;;6248166;28;20049;-69
2022/03/29 03:36:35;;;;;;;12.18;5.10;;;15.90;36.20;;;;;;6230215;28;20041;-70
2022/03/29 03:39:40;;;;;;;14.77;5.40;;;15.90;36.50;;;;;;6247706;28;20041;-70
2022/03/29 03:42:40;;;;;;;16.27;5.22;;;16.00;36.50;;;;;;6229293;28;20033;-70
2022/03/29 03:45:41;;;;;;;16.17;5.38;;;15.90;36.40;;;;;;6224131;28;20068;-71
2022/03/29 03:48:42;;;;;;;11.77;5.57;;;15.90;36.50;;;;;;6230300;28;20037;-70
2022/03/29 03:51:43;;;;;;;14.43;6.57;;;15.90;36.70;;;;;;6247871;28;20038;-70
2022/03/29 03:54:45;;;;;;;14.73;7.25;;;15.90;36.80;;;;;;6230158;28;20120;-71
2022/03/29 03:57:46;;;;;;;12.38;6.07;;;15.80;37.10;;;;;;6247440;28;20517;-71
2022/03/29 04:00:47;;;;;;;14.38;6.38;;;15.80;37.20;;;;;;6246047;28;20041;-70
2022/03/29 04:03:47;;;;;;;18.70;6.47;;;15.80;37.50;;;;;;6230122;28;20041;-70
2022/03/29 04:06:48;;;;;;;14.73;6.20;;;15.80;37.60;;;;;;6246061;28;20033;-70
2022/03/29 04:09:49;;;;;;;13.70;6.53;;;15.80;37.40;;;;;;6247685;28;20049;-70
2022/03/29 04:12:50;;;;;;;14.55;6.60;;;15.80;37.60;;;;;;6246119;28;20048;-70
2022/03/29 04:15:51;;;;;;;14.70;6.85;;;15.80;37.80;;;;;;6247276;28;20034;-70
2022/03/29 04:18:52;;;;;;;12.90;6.38;;;15.80;37.90;;;;;;6247249;28;20044;-70
2022/03/29 04:21:53;;;;;;;13.65;6.30;;;15.80;38.00;;;;;;6229307;28;20044;-70
2022/03/29 04:24:54;;;;;;;18.30;6.45;;;15.70;38.10;;;;;;6247156;28;20038;-70
2022/03/29 04:27:55;;;;;;;18.40;6.72;;;15.70;38.10;;;;;;6243368;28;20139;-70
2022/03/29 04:30:55;;;;;;;16.50;6.00;;;15.70;38.30;;;;;;6237401;28;20038;-70
2022/03/29 04:33:58;;;;;;;20.50;6.75;;;15.70;38.70;;;;;;6212549;28;20466;-70
2022/03/29 04:36:59;;;;;;;11.90;6.68;;;15.70;38.80;;;;;;6243939;28;20073;-70
2022/03/29 04:40:01;;;;;;;14.70;6.55;;;15.60;38.60;;;;;;6246350;28;20472;-71
2022/03/29 04:43:02;;;;;;;13.80;6.60;;;15.60;38.50;;;;;;6226559;28;20167;-70
2022/03/29 04:46:03;;;;;;;12.82;6.22;;;15.60;38.60;;;;;;6224981;28;20416;-71
2022/03/29 04:53:25;;;;;;;13.10;6.73;;;15.60;38.70;;;;;;6247679;28;20026;-69
2022/03/29 04:56:25;;;;;;;16.42;7.38;;;15.60;38.70;;;;;;6247989;28;20056;-70
2022/03/29 04:59:27;;;;;;;22.65;6.82;;;15.60;38.70;;;;;;6231383;28;20067;-70
2022/03/29 05:02:28;;;;;;;12.23;6.38;;;15.60;38.90;;;;;;6226468;28;20041;-70
2022/03/29 05:05:29;;;;;;;15.02;6.10;;;15.60;38.90;;;;;;6240302;28;20742;-70
2022/03/29 05:08:29;;;;;;;15.93;5.47;;;15.50;38.80;;;;;;6238937;28;20039;-70
2022/03/29 05:11:30;;;;;;;12.43;6.53;;;15.50;38.90;;;;;;6228664;28;20060;-70
2022/03/29 05:14:32;;;;;;;12.10;5.78;;;15.40;39.00;;;;;;6245939;28;20065;-70
2022/03/29 05:17:34;;;;;;;14.32;6.50;;;15.40;39.20;;;;;;6245499;28;20033;-70
2022/03/29 05:20:35;;;;;;;11.85;5.57;;;15.30;39.30;;;;;;6228591;28;20037;-70
2022/03/29 05:23:36;;;;;;;12.77;6.10;;;15.30;39.40;;;;;;6245930;28;20602;-70
2022/03/29 05:26:37;;;;;;;15.63;5.88;;;15.20;39.20;;;;;;6245639;28;20040;-69
2022/03/29 05:29:38;;;;;;;13.63;7.28;;;15.20;39.30;;;;;;6244084;28;20037;-71
2022/03/29 05:32:39;;;;;;;22.08;5.97;;;15.20;39.80;;;;;;6247280;28;20458;-71
2022/03/29 05:35:40;;;;;;;18.10;6.88;;;15.20;39.30;;;;;;6243988;28;20087;-70
2022/03/29 05:38:41;;;;;;;18.70;7.13;;;15.20;39.50;;;;;;6246090;28;20560;-70
2022/03/29 05:41:42;;;;;;;12.70;6.25;;;15.20;39.60;;;;;;6230403;28;20119;-70
2022/03/29 05:44:43;;;;;;;27.25;6.15;;;15.20;39.60;;;;;;6246510;28;20034;-70
2022/03/29 05:51:04;;;;;;;21.50;6.50;;;15.20;39.70;;;;;;6244294;28;20049;-70
2022/03/29 05:54:06;;;;;;;22.45;6.75;;;15.30;39.80;;;;;;6243749;28;20061;-70
2022/03/29 05:57:07;;;;;;;14.63;6.65;;;15.30;40.10;;;;;;6244322;28;20043;-70
2022/03/29 06:00:12;;;;;;;15.65;6.25;;;15.30;40.20;;;;;;6227254;28;20092;-70
2022/03/29 06:03:19;;;;;;;11.57;5.75;;;15.30;40.30;;;;;;6227230;28;20049;-70
2022/03/29 06:06:21;;;;;;;16.17;6.90;;;15.40;40.20;;;;;;6225637;28;20112;-70
2022/03/29 06:09:22;;;;;;;20.27;6.72;;;15.40;40.10;;;;;;6209449;28;20107;-70
2022/03/29 06:12:24;;;;;;;15.52;6.57;;;15.40;40.10;;;;;;6227002;28;20421;-70
2022/03/29 06:15:24;;;;;;;18.30;7.00;;;15.50;40.20;;;;;;6226043;28;20049;-70
2022/03/29 06:18:26;;;;;;;20.65;7.70;;;15.60;40.00;;;;;;6216554;28;20061;-70
2022/03/29 06:21:27;;;;;;;14.55;6.88;;;15.60;39.90;;;;;;6243461;28;20033;-71
2022/03/29 06:24:28;;;;;;;17.02;6.43;;;15.60;39.70;;;;;;6243841;28;20033;-70
2022/03/29 06:27:29;;;;;;;15.90;7.50;;;15.70;39.80;;;;;;6244132;28;20117;-70
2022/03/29 06:30:30;;;;;;;13.35;6.40;;;15.70;39.80;;;;;;6225758;28;20041;-70
2022/03/29 06:33:30;;;;;;;19.65;7.10;;;15.70;39.70;;;;;;6243714;28;20431;-70
2022/03/29 06:36:32;;;;;;;18.27;6.75;;;15.80;39.60;;;;;;6224998;28;20049;-71
2022/03/29 06:39:33;;;;;;;23.42;7.78;;;15.90;39.50;;;;;;6226480;28;20137;-70
2022/03/29 06:42:33;;;;;;;21.98;7.43;;;16.00;39.30;;;;;;6225075;28;20041;-70
2022/03/29 06:45:34;;;;;;;20.60;7.80;;;16.10;39.20;;;;;;6243755;28;20037;-70
2022/03/29 06:48:36;;;;;;;17.55;6.85;;;16.20;39.10;;;;;;6226246;28;20136;-70
2022/03/29 06:51:37;;;;;;;16.55;7.15;;;16.20;38.90;;;;;;6233119;28;20048;-70
2022/03/29 06:54:38;;;;;;;21.83;7.15;;;16.20;38.80;;;;;;6226218;28;20053;-71
2022/03/29 06:57:39;;;;;;;18.13;7.70;;;16.20;38.80;;;;;;6228658;28;20116;-71
2022/03/29 07:00:40;;;;;;;17.73;8.15;;;16.30;38.80;;;;;;6231045;28;20505;-70
2022/03/29 07:03:41;;;;;;;12.82;6.65;;;16.30;38.70;;;;;;6229087;28;20029;-69
2022/03/29 07:06:42;;;;;;;15.68;7.20;;;16.40;38.60;;;;;;6236782;28;20050;-69
2022/03/29 07:13:03;;;;;;;19.67;7.90;;;16.50;38.40;;;;;;6230845;28;20038;-70
2022/03/29 07:16:04;;;;;;;13.18;7.25;;;16.50;38.30;;;;;;6231261;28;20042;-70
2022/03/29 07:19:09;;;;;;;24.52;7.13;;;16.60;38.20;;;;;;6247333;28;20025;-71
2022/03/29 07:22:09;;;;;;;14.52;7.50;;;16.80;37.90;;;;;;6247286;28;20488;-69
2022/03/29 07:25:12;;;;;;;29.65;6.68;;;16.80;37.60;;;;;;6248038;28;20033;-72
2022/03/29 07:28:13;;;;;;;15.70;6.43;;;16.90;37.40;;;;;;6247155;28;20043;-70
2022/03/29 07:31:15;;;;;;;22.73;7.70;;;16.90;37.20;;;;;;6246580;28;20468;-72
2022/03/29 07:34:16;;;;;;;11.38;6.50;;;16.90;37.10;;;;;;6229937;28;20038;-70
2022/03/29 07:37:17;;;;;;;15.95;7.07;;;16.90;37.00;;;;;;6229799;28;20033;-70
2022/03/29 07:40:21;;;;;;;24.02;7.05;;;16.90;36.90;;;;;;6230418;28;20096;-72
2022/03/29 07:43:22;;;;;;;18.42;6.43;;;17.00;37.40;;;;;;6228613;28;20124;-70
2022/03/29 07:46:23;;;;;;;13.40;6.32;;;17.10;36.60;;;;;;6247400;28;20433;-71
2022/03/29 07:49:24;;;;;;;17.33;6.90;;;17.20;36.50;;;;;;6229267;28;20698;-70
2022/03/29 07:52:24;;;;;;;20.23;7.22;;;17.30;36.40;;;;;;6230262;28;20040;-70
2022/03/29 07:55:26;;;;;;;12.48;6.13;;;17.30;36.20;;;;;;6229290;28;20346;-70
2022/03/29 07:58:27;;;;;;;21.15;6.13;;;17.40;35.80;;;;;;6220373;28;20040;-70
2022/03/29 08:01:29;;;;;;;21.13;6.57;;;17.40;35.60;;;;;;6247296;28;20473;-70
2022/03/29 08:04:30;;;;;;;14.95;5.93;;;17.50;35.40;;;;;;6247016;28;20045;-70
2022/03/29 08:07:31;;;;;;;13.88;6.45;;;17.60;35.20;;;;;;6244669;28;20068;-70
2022/03/29 08:10:33;;;;;;;22.30;7.63;;;17.70;35.10;;;;;;6228383;28;20511;-70
2022/03/29 08:13:36;;;;;;;16.20;5.93;;;17.70;35.10;;;;;;6213818;28;20048;-70
2022/03/29 08:16:37;;;;;;;20.85;6.85;;;17.80;35.10;;;;;;6247073;28;20037;-69
2022/03/29 08:19:38;;;;;;;16.05;6.78;;;17.90;35.10;;;;;;6248196;28;20383;-70
2022/03/29 08:22:44;;;;;;;18.55;6.80;;;17.90;35.00;;;;;;6228864;28;20484;-70
2022/03/29 08:25:46;;;;;;;18.95;7.05;;;17.90;35.00;;;;;;6247430;28;20482;-70
2022/03/29 08:28:47;;;;;;;18.60;6.88;;;18.00;35.10;;;;;;6247682;28;20159;-71
2022/03/29 08:31:49;;;;;;;19.50;7.20;;;18.10;35.10;;;;;;6246872;28;20108;-70
2022/03/29 08:34:50;;;;;;;26.05;6.85;;;18.30;34.90;;;;;;6229254;28;20370;-70
2022/03/29 08:37:51;;;;;;;22.10;6.85;;;18.40;34.70;;;;;;6213233;28;20083;-69
2022/03/29 08:40:56;;;;;;;25.42;7.20;;;18.50;34.50;;;;;;6247529;28;20033;-70
2022/03/29 08:43:57;;;;;;;13.68;6.35;;;18.60;34.30;;;;;;6247519;28;20049;-70
2022/03/29 08:46:58;;;;;;;17.13;6.55;;;18.80;33.90;;;;;;6229530;28;20029;-70
2022/03/29 08:50:01;;;;;;;18.15;6.55;;;18.80;33.70;;;;;;6246961;28;20045;-71
2022/03/29 08:53:04;;;;;;;20.27;8.25;;;18.90;33.60;;;;;;6227146;28;20041;-70
2022/03/29 08:56:05;;;;;;;21.55;6.50;;;19.00;33.60;;;;;;6247152;28;20041;-71
2022/03/29 08:59:06;;;;;;;10.60;6.60;;;19.10;33.40;;;;;;6247160;28;20099;-71
2022/03/29 09:02:12;;;;;;;30.13;7.93;;;19.20;33.40;;;;;;6246726;28;20040;-70
2022/03/29 09:05:20;;;;;;;19.52;8.07;;;19.20;33.40;;;;;;6246512;28;20056;-71
2022/03/29 09:08:21;;;;;;;;;;;19.40;33.50;;;;;;6227717;28;20037;-71
2022/03/29 09:11:22;;;;;;;21.05;7.57;;;19.40;33.50;;;;;;6246444;28;19917;-70
2022/03/29 09:14:24;;;;;;;17.00;7.32;;;19.60;33.50;;;;;;6244017;28;20037;-71
2022/03/29 09:17:33;;;;;;;20.48;6.90;;;19.60;33.50;;;;;;6229509;28;20033;-71
2022/03/29 09:20:34;;;;;;;26.95;7.75;;;19.70;33.50;;;;;;6246285;28;20033;-70
2022/03/29 09:23:35;;;;;;;18.73;6.72;;;19.80;33.30;;;;;;6245316;28;20107;-71
2022/03/29 09:26:38;;;;;;;21.40;7.65;;;19.90;33.10;;;;;;6228449;28;20439;-70
2022/03/29 09:29:39;;;;;;;25.77;8.10;;;19.90;32.80;;;;;;6228925;28;20045;-69
2022/03/29 09:32:58;;;;;;;17.77;7.38;;;20.00;32.70;;;;;;6246175;28;20131;-70
2022/03/29 09:36:04;;;;;;;19.33;7.68;;;20.10;32.50;;;;;;6227408;28;20038;-70
2022/03/29 09:39:06;;;;;;;17.70;7.65;;;20.20;32.30;;;;;;6244084;28;20626;-70
2022/03/29 09:42:12;;;;;;;15.35;7.13;;;20.20;32.10;;;;;;6228936;28;20072;-71
2022/03/29 09:45:41;;;;;;;17.75;7.80;;;20.20;31.80;;;;;;6227356;28;20187;-70
2022/03/29 09:48:44;;;;;;;25.00;8.82;;;20.20;32.00;;;;;;6225949;28;20065;-70
2022/03/29 09:51:48;;;;;;;28.67;9.27;;;20.20;31.80;;;;;;6226380;28;20026;-70
2022/03/29 09:55:09;;;;;;;32.08;9.07;;;20.20;31.70;;;;;;6226837;28;20033;-70
2022/03/29 09:58:14;;;;;;;43.53;10.80;;;20.20;31.60;;;;;;6203915;28;20048;-70
2022/03/29 10:01:25;;;;;;;28.10;9.10;;;20.30;31.40;;;;;;6225047;28;20397;-73
2022/03/29 10:04:33;;;;;;;26.08;9.55;;;20.30;31.20;;;;;;6230954;28;20029;-71
2022/03/29 10:07:42;;;;;;;34.75;8.98;;;20.40;30.90;;;;;;6240811;28;20091;-71
2022/03/29 10:10:47;;;;;;;32.33;9.35;;;20.50;30.70;;;;;;6207134;28;20045;-72
2022/03/29 10:13:49;;;;;;;29.23;8.63;;;20.60;30.60;;;;;;6241100;28;20049;-71
2022/03/29 10:16:54;;;;;;;25.00;9.18;;;20.70;30.10;;;;;;6225174;28;20071;-71
2022/03/29 10:19:58;;;;;;;21.40;8.38;;;20.70;29.70;;;;;;6242581;28;20037;-72
2022/03/29 10:22:59;;;;;;;20.83;9.05;;;20.60;29.40;;;;;;6224978;28;20048;-73
2022/03/29 10:26:02;;;;;;;39.00;9.25;;;20.60;29.40;;;;;;6226668;28;20034;-71
2022/03/29 10:29:07;;;;;;;30.70;9.18;;;20.60;29.40;;;;;;6225784;28;20071;-70
2022/03/29 10:32:10;;;;;;;31.63;9.40;;;20.60;29.40;;;;;;6243446;28;20026;-71
2022/03/29 10:35:11;;;;;;;20.55;8.98;;;20.60;29.30;;;;;;6224334;28;20121;-70
2022/03/29 10:38:12;;;;;;;29.13;10.20;;;20.60;29.30;;;;;;6208193;28;20063;-71
2022/03/29 10:41:28;;;;;;;26.70;9.40;;;20.60;29.10;;;;;;6226414;28;20037;-71
2022/03/29 10:45:09;;;;;;;34.40;9.90;;;20.70;29.20;;;;;;6242278;28;20053;-72
2022/03/29 10:48:12;;;;;;;24.42;9.00;;;20.80;29.10;;;;;;6215254;28;20073;-71
2022/03/29 10:51:24;;;;;;;25.92;9.73;;;20.90;28.80;;;;;;6191053;28;20099;-72
2022/03/29 10:54:37;;;;;;;23.15;10.00;;;21.00;28.60;;;;;;6209795;28;20041;-71
2022/03/29 10:57:39;;;;;;;19.80;9.35;;;21.20;28.40;;;;;;6230768;28;20071;-71
2022/03/29 11:00:45;;;;;;;22.02;9.05;;;21.30;28.10;;;;;;6219213;28;20045;-72
2022/03/29 11:04:27;;;;;;;21.90;9.13;;;21.40;28.00;;;;;;6217055;28;20128;-72
2022/03/29 11:07:30;;;;;;;23.02;8.35;;;21.40;28.30;;;;;;6061442;29;20069;-73
2022/03/29 11:10:44;;;;;;;13.05;7.25;;;21.50;27.90;;;;;;6083981;29;20036;-72
2022/03/29 11:13:46;;;;;;;18.95;7.53;;;21.60;27.60;;;;;;6057190;29;20139;-72
2022/03/29 11:16:47;;;;;;;31.23;7.60;;;21.60;27.30;;;;;;6073849;29;20096;-71
2022/03/29 11:19:54;;;;;;;20.73;8.25;;;21.80;27.20;;;;;;6089587;29;20123;-71
2022/03/29 11:23:05;;;;;;;28.73;7.28;;;22.00;26.90;;;;;;6065775;29;20052;-72
2022/03/29 11:26:14;;;;;;;18.42;8.25;;;22.10;26.40;;;;;;6072209;29;20032;-71
2022/03/29 11:29:16;;;;;;;19.80;7.40;;;22.20;25.90;;;;;;6089563;29;20036;-73
2022/03/29 11:32:18;;;;;;;17.58;7.53;;;22.30;25.90;;;;;;6060319;29;20036;-72
2022/03/29 11:35:22;;;;;;;20.38;7.35;;;22.40;25.60;;;;;;6073785;29;20115;-71
2022/03/29 11:38:24;;;;;;;24.50;7.80;;;22.60;25.40;;;;;;6091114;29;20043;-71
2022/03/29 11:41:29;;;;;;;18.65;8.45;;;22.80;25.30;;;;;;6153424;28;20389;-72
2022/03/29 11:44:32;;;;;;;26.92;7.38;;;22.90;25.10;;;;;;6207390;28;20416;-71
2022/03/29 11:47:35;;;;;;;18.85;7.43;;;23.00;24.70;;;;;;6210261;28;20049;-72
2022/03/29 11:50:54;;;;;;;20.67;7.95;;;23.00;24.60;;;;;;6203981;28;20045;-71
2022/03/29 11:53:57;;;;;;;22.60;7.50;;;23.10;24.60;;;;;;6225546;28;20036;-71
2022/03/29 11:56:59;;;;;;;19.33;6.63;;;23.10;24.30;;;;;;6218068;28;20056;-71
2022/03/29 12:00:00;;;;;;;16.85;7.03;;;23.10;24.30;;;;;;6244683;28;20064;-71
2022/03/29 12:03:02;;;;;;;17.30;6.72;;;23.20;24.30;;;;;;6208402;28;20044;-71
2022/03/29 12:06:14;;;;;;;17.63;7.18;;;23.20;24.00;;;;;;6207684;28;20039;-71
2022/03/29 12:09:26;;;;;;;25.65;7.10;;;23.30;24.10;;;;;;6207796;28;20056;-70
2022/03/29 12:12:27;;;;;;;22.30;7.80;;;23.30;23.90;;;;;;6244653;28;20373;-72
2022/03/29 12:15:28;;;;;;;16.88;7.53;;;23.50;23.80;;;;;;6242843;28;20041;-71
2022/03/29 12:18:41;;;;;;;19.33;7.05;;;23.60;23.70;;;;;;6228157;28;20044;-71
2022/03/29 12:21:48;;;;;;;14.18;6.90;;;23.70;23.70;;;;;;6246386;28;20567;-71
2022/03/29 12:24:55;;;;;;;23.40;7.20;;;23.90;23.50;;;;;;6245974;28;20331;-71
2022/03/29 12:27:55;;;;;;;25.00;6.70;;;24.00;23.30;;;;;;6228695;28;20103;-71
2022/03/29 12:30:57;;;;;;;28.08;7.35;;;24.10;23.10;;;;;;6226149;28;20049;-71
2022/03/29 12:33:58;;;;;;;15.43;6.45;;;24.10;22.70;;;;;;6227063;28;20053;-71
2022/03/29 12:37:02;;;;;;;12.93;6.53;;;24.10;22.50;;;;;;6245348;28;20052;-71
2022/03/29 12:40:09;;;;;;;16.33;6.43;;;24.20;22.40;;;;;;6245590;28;20041;-72
2022/03/29 12:43:10;;;;;;;17.17;6.20;;;24.30;22.30;;;;;;6227544;28;20127;-71
2022/03/29 12:46:12;;;;;;;16.63;6.13;;;24.40;21.80;;;;;;6227990;28;20034;-71
2022/03/29 12:49:14;;;;;;;26.42;6.68;;;24.50;21.80;;;;;;6228034;28;20045;-72
2022/03/29 12:52:17;;;;;;;16.73;6.40;;;24.50;21.70;;;;;;6245473;28;20028;-70
2022/03/29 12:55:19;;;;;;;18.25;6.45;;;24.50;21.60;;;;;;6211322;28;20030;-70
2022/03/29 12:58:35;;;;;;;15.35;6.43;;;24.50;21.60;;;;;;6243687;28;20049;-70
2022/03/29 13:01:36;;;;;;;31.73;6.68;;;24.60;21.70;;;;;;6240510;28;20032;-71
2022/03/29 13:04:51;;;;;;;20.35;5.93;;;24.70;21.40;;;;;;6233877;28;20449;-71
2022/03/29 13:07:56;;;;;;;24.48;6.20;;;24.80;21.20;;;;;;6224681;28;20037;-70
2022/03/29 13:10:57;;;;;;;22.92;6.22;;;25.00;20.90;;;;;;6225790;28;20477;-71
2022/03/29 13:14:06;;;;;;;16.27;4.97;;;25.10;20.80;;;;;;6210189;28;20053;-71
2022/03/29 13:17:07;;;;;;;13.32;5.78;;;25.40;20.80;;;;;;6210112;28;20076;-72
2022/03/29 13:20:08;;;;;;;19.33;5.63;;;25.50;20.40;;;;;;6243912;28;20117;-71
2022/03/29 13:23:09;;;;;;;22.65;6.38;;;25.60;20.30;;;;;;6209840;28;20049;-70
2022/03/29 13:26:13;;;;;;;21.40;6.15;;;25.70;20.40;;;;;;6242512;28;20374;-71
2022/03/29 13:29:15;;;;;;;26.08;5.82;;;26.00;20.20;;;;;;6208058;28;20478;-71
2022/03/29 13:32:17;;;;;;;15.60;5.40;;;26.50;20.00;;;;;;6225850;28;20124;-71
2022/03/29 13:35:19;;;;;;;15.13;5.65;;;27.00;19.40;;;;;;6242219;28;21182;-72
2022/03/29 13:38:21;;;;;;;24.75;6.13;;;27.30;19.00;;;;;;6242185;28;20116;-71
2022/03/29 13:41:25;;;;;;;19.60;6.03;;;27.00;18.90;;;;;;6241457;28;20029;-71
2022/03/29 13:44:27;;;;;;;20.15;5.60;;;26.80;19.00;;;;;;6223117;28;20079;-71
2022/03/29 13:47:28;;;;;;;19.13;5.78;;;26.50;19.20;;;;;;6242535;28;20446;-71
2022/03/29 13:50:30;;;;;;;15.18;6.03;;;26.30;19.20;;;;;;6230836;28;20052;-71
2022/03/29 13:53:31;;;;;;;19.83;6.03;;;26.20;19.10;;;;;;6223516;28;20462;-71
2022/03/29 13:56:32;;;;;;;21.52;5.90;;;26.10;19.20;;;;;;6209043;28;20041;-71
2022/03/29 13:59:33;;;;;;;26.15;6.55;;;26.00;19.40;;;;;;6242975;28;20489;-71
2022/03/29 14:02:34;;;;;;;20.85;6.82;;;25.80;19.60;;;;;;6225656;28;20065;-71
2022/03/29 14:05:42;;;;;;;30.35;6.97;;;25.70;19.80;;;;;;6208481;28;20127;-70
2022/03/29 14:08:42;;;;;;;;;;;25.60;19.90;;;;;;6240523;28;20056;-71
2022/03/29 14:11:44;;;;;;;21.95;5.40;;;25.50;20.00;;;;;;6242347;28;19913;-70
2022/03/29 14:14:45;;;;;;;21.65;5.93;;;25.50;20.00;;;;;;6241003;28;20077;-71
2022/03/29 14:17:47;;;;;;;18.42;4.82;;;25.50;19.80;;;;;;6220358;28;20037;-71
2022/03/29 14:20:50;;;;;;;21.58;6.07;;;25.60;19.50;;;;;;6239745;28;20102;-71
2022/03/29 14:23:51;;;;;;;16.88;5.30;;;25.70;19.40;;;;;;6222758;28;20034;-71
2022/03/29 14:26:57;;;;;;;19.77;5.80;;;25.80;19.40;;;;;;6242574;28;20527;-70
2022/03/29 14:29:59;;;;;;;12.65;5.72;;;25.90;19.70;;;;;;6239899;28;20381;-71
2022/03/29 14:33:02;;;;;;;13.90;5.85;;;25.70;19.90;;;;;;6206967;28;20037;-71
2022/03/29 14:36:03;;;;;;;18.23;7.03;;;25.50;20.00;;;;;;6222194;28;20041;-72
2022/03/29 14:39:03;;;;;;;16.05;5.68;;;25.40;20.20;;;;;;6240189;28;20057;-73
2022/03/29 14:42:04;;;;;;;16.27;5.75;;;25.10;20.40;;;;;;6222017;28;20044;-70
2022/03/29 14:45:08;;;;;;;23.27;6.63;;;24.90;20.60;;;;;;6240613;28;20049;-70
2022/03/29 14:48:09;;;;;;;16.50;5.75;;;24.70;20.90;;;;;;6241006;28;20057;-71
2022/03/29 14:51:12;;;;;;;17.90;5.65;;;24.50;21.70;;;;;;6223589;28;20065;-71
2022/03/29 14:54:13;;;;;;;23.90;5.45;;;24.30;21.30;;;;;;6223376;28;20446;-70
2022/03/29 14:57:14;;;;;;;12.90;5.82;;;24.20;21.40;;;;;;6241246;28;20029;-70
2022/03/29 15:00:15;;;;;;;24.83;5.80;;;24.10;21.70;;;;;;6224849;28;20033;-71
2022/03/29 15:03:16;;;;;;;31.38;6.30;;;24.10;22.30;;;;;;6241729;28;20033;-70
2022/03/29 15:06:17;;;;;;;20.10;7.03;;;24.10;21.80;;;;;;6213652;28;20104;-71
2022/03/29 15:09:18;;;;;;;18.63;5.05;;;24.10;21.80;;;;;;6222443;28;20524;-70
2022/03/29 15:12:19;;;;;;;18.48;5.15;;;24.10;21.80;;;;;;6223959;28;20128;-71
2022/03/29 15:15:21;;;;;;;18.95;5.38;;;24.10;21.90;;;;;;6223607;28;20032;-71
2022/03/29 15:18:22;;;;;;;20.90;5.55;;;24.20;21.80;;;;;;6243652;28;20149;-72
2022/03/29 15:21:23;;;;;;;7.90;4.88;;;24.30;21.80;;;;;;6244849;28;20029;-72
2022/03/29 15:24:24;;;;;;;15.63;5.18;;;24.30;21.80;;;;;;6243716;28;20128;-71
2022/03/29 15:27:25;;;;;;;16.33;5.07;;;24.40;21.70;;;;;;6212077;28;20366;-71
2022/03/29 15:30:26;;;;;;;20.30;4.97;;;24.50;21.80;;;;;;6212316;28;20052;-70
2022/03/29 15:33:29;;;;;;;17.45;5.63;;;24.40;21.80;;;;;;6229924;28;20393;-70
2022/03/29 15:36:30;;;;;;;18.88;4.93;;;24.30;21.90;;;;;;6228959;28;20504;-71
2022/03/29 15:39:32;;;;;;;19.15;4.75;;;24.30;22.00;;;;;;6229940;28;20046;-71
2022/03/29 15:42:33;;;;;;;14.63;5.10;;;24.20;22.10;;;;;;6229246;28;20362;-70
2022/03/29 15:45:39;;;;;;;18.02;4.70;;;24.00;22.20;;;;;;6246265;28;20037;-70
2022/03/29 15:48:41;;;;;;;11.30;4.32;;;24.00;22.30;;;;;;6248106;28;20025;-70
2022/03/29 15:51:42;;;;;;;16.13;5.15;;;23.90;22.40;;;;;;6227936;28;20069;-70
2022/03/29 15:54:44;;;;;;;17.77;4.80;;;23.80;22.50;;;;;;6229447;28;20029;-71